Latest Coastal Weather Observations for Rhyll

IDV60701

Issued at 5:15 pm EDT Thursday 23 October 2014 (issued every 10 minutes, with the page automatically refreshed every 10 minutes)

About coastal observations | Map of coastal stations | Coastal observations for VIC | Marine services | Other Formats
Station Details ID: 086373 Name: RHYLL Lat: -38.46 Lon: 145.31 Height: 13.4 m
Data from the previous 72 hours. | See also: Recent months at Rhyll
Date/Time
EDT
Temp

°C
Wind Pressure Rain
since 9am
mm
Weather Cloud Vis
km
Sea
Height
m
Swell
Dir
 
Speed
knots
Gust
knots
hPa Trend Height
m
Period
s
Dir
23/05:00pm 17.9 E 18 23 1017.1 - 0.0 - - - - - - -
23/04:30pm 17.4 ESE 18 22 1017.2 - 0.0 - - - - - - -
23/04:00pm 17.1 ESE 16 22 1017.3 - 0.0 - - - - - - -
23/03:30pm 17.1 ESE 20 23 1017.6 - 0.0 - - - - - - -
23/03:00pm 17.3 ESE 18 21 1017.9 - 0.0 - - - - - - -
23/02:30pm 17.1 ESE 16 19 1018.2 - 0.0 - - - - - - -
23/02:00pm 17.3 ESE 14 17 1018.5 - 0.0 - - - - - - -
23/01:30pm 17.3 SSE 5 7 1019.0 - 0.0 - - - - - - -
23/01:00pm 17.2 S 5 7 1019.3 - 0.0 - - - - - - -
23/12:30pm 16.5 S 4 6 1019.9 - 0.0 - - - - - - -
23/12:00pm 16.2 S 1 2 1020.3 - 0.0 - - - - - - -
23/11:30am 15.8 E 2 3 1020.4 - 0.0 - - - - - - -
23/11:00am 15.2 ESE 3 4 1020.8 - 0.0 - - - - - - -
23/10:30am 15.2 E 1 2 1021.0 - 0.0 - - - - - - -
23/10:00am 14.9 CALM 0 2 1020.7 - 0.0 - - - - - - -
23/09:30am 14.7 ESE 1 3 1020.5 - 0.0 - - - - - - -
23/09:00am 14.5 S 1 3 1020.4 - 3.8 - - - - - - -
23/08:30am 14.3 S 2 3 1020.7 - 3.8 - - - - - - -
23/08:00am 13.9 SW 3 5 1020.4 - 3.8 - - - - - - -
23/07:30am 14.0 SW 4 6 1020.2 - 3.8 - - - - - - -
23/07:00am 13.9 SW 4 6 1020.0 - 3.8 - - - - - - -
23/06:30am 13.8 SW 6 9 1019.6 - 3.8 - - - - - - -
23/06:00am 13.8 SW 5 8 1019.1 - 3.8 - - - - - - -
23/05:30am 13.7 SW 6 12 1018.7 - 3.8 - - - - - - -
23/05:00am 14.0 SW 8 13 1018.3 - 3.8 - - - - - - -
23/04:30am 14.1 SSW 6 10 1018.2 - 3.8 - - - - - - -
23/04:00am 14.1 SW 6 9 1018.2 - 3.8 - - - - - - -
23/03:30am 14.0 SW 4 6 1018.4 - 3.8 - - - - - - -
23/03:00am 14.0 W 5 7 1018.4 - 3.8 - - - - - - -
23/02:30am 14.2 W 5 7 1018.5 - 3.8 - - - - - - -
23/02:00am 14.4 W 6 9 1018.2 - 3.8 - - - - - - -
23/01:30am 14.7 W 7 13 1018.3 - 3.8 - - - - - - -
23/01:00am 15.1 W 4 10 1018.3 - 3.6 - - - - - - -
23/12:30am 15.5 W 10 23 1018.0 - 3.6 - - - - - - -
23/12:27am 15.5 N 13 23 1017.9 - 3.6 - - - - - - -
23/12:19am 15.5 E 16 26 1015.7 - 3.6 - - - - - - -
23/12:18am 15.5 E 15 25 1016.0 - 3.6 - - - - - - -
23/12:14am 15.5 ENE 12 14 1017.3 - 3.4 - - - - - - -
23/12:00am 15.6 WSW 4 8 1019.3 - 0.0 - - - - - - -
 
Date/Time
EDT
Temp

°C
Wind Pressure Rain
since 9am
mm
Weather Cloud Vis
km
Sea
Height
m
Swell
Dir
 
Speed
knots
Gust
knots
hPa Trend Height
m
Period
s
Dir
22/11:30pm 15.3 WSW 8 19 1018.5 - 0.0 - - - - - - -
22/11:00pm 15.3 SW 4 8 1017.8 - 0.0 - - - - - - -
22/10:30pm 15.7 SW 6 11 1017.4 - 0.0 - - - - - - -
22/10:00pm 17.7 WSW 9 17 1017.5 - 0.0 - - - - - - -
22/09:30pm 18.9 SW 8 14 1017.0 - 0.0 - - - - - - -
22/09:00pm 19.9 WSW 3 5 1016.8 - 0.0 - - - - - - -
22/08:30pm 19.7 SSW 6 8 1015.7 - 0.0 - - - - - - -
22/08:00pm 20.0 SSW 7 9 1015.2 - 0.0 - - - - - - -
22/07:30pm 19.9 SSW 8 11 1015.2 - 0.0 - - - - - - -
22/07:00pm 23.2 SSW 11 14 1014.4 - 0.0 - - - - - - -
22/06:30pm 25.2 ENE 3 4 1014.3 - 0.0 - - - - - - -
22/06:00pm 24.4 E 3 4 1014.4 - 0.0 - - - - - - -
22/05:30pm 25.1 NE 6 7 1014.5 - 0.0 - - - - - - -
22/05:00pm 24.7 ENE 7 9 1014.4 - 0.0 - - - - - - -
22/04:30pm 24.3 ENE 7 9 1014.7 - 0.0 - - - - - - -
22/04:00pm 27.3 ENE 6 8 1014.9 - 0.0 - - - - - - -
22/03:30pm 26.8 NE 3 5 1015.2 - 0.0 - - - - - - -
22/03:00pm 27.0 ENE 2 4 1015.6 - 0.0 - - - - - - -
22/02:30pm 28.3 NE 2 3 1015.9 - 0.0 - - - - - - -
22/02:00pm 26.4 ENE 2 2 1016.4 - 0.0 - - - - - - -
22/01:30pm 25.4 NNE 2 4 1016.7 - 0.0 - - - - - - -
22/01:00pm 24.9 NE 2 3 1017.1 - 0.0 - - - - - - -
22/12:30pm 24.4 NNE 1 4 1017.6 - 0.0 - - - - - - -
22/12:00pm 23.6 NE 2 3 1018.1 - 0.0 - - - - - - -
22/11:30am 22.6 N 2 4 1018.7 - 0.0 - - - - - - -
22/11:00am 21.8 NNE 4 5 1019.1 - 0.0 - - - - - - -
22/10:30am 21.0 NE 4 5 1019.2 - 0.0 - - - - - - -
22/10:00am 20.3 NE 4 4 1019.3 - 0.0 - - - - - - -
22/09:30am 19.4 ENE 3 5 1019.4 - 0.0 - - - - - - -
22/09:00am 17.0 N 2 3 1019.5 - 0.0 - - - - - - -
22/08:30am 16.3 NNE 4 6 1019.3 - 0.0 - - - - - - -
22/08:00am 15.0 N 5 7 1019.4 - 0.0 - - - - - - -
22/07:30am 13.9 NNW 5 6 1019.5 - 0.0 - - - - - - -
22/07:00am 13.3 NW 4 7 1019.6 - 0.0 - - - - - - -
22/06:30am 14.1 NNE 6 9 1019.5 - 0.0 - - - - - - -
22/06:00am 14.0 NNE 5 7 1019.5 - 0.0 - - - - - - -
22/05:30am 13.1 NNW 4 5 1019.7 - 0.0 - - - - - - -
22/05:00am 14.1 NNE 4 7 1019.6 - 0.0 - - - - - - -
22/04:30am 13.8 NNE 6 9 1019.6 - 0.0 - - - - - - -
22/04:00am 13.6 NNW 5 6 1019.8 - 0.0 - - - - - - -
22/03:30am 14.1 NNW 3 5 1020.1 - 0.0 - - - - - - -
22/03:00am 14.0 NNW 4 5 1020.4 - 0.0 - - - - - - -
22/02:30am 14.4 N 3 5 1020.7 - 0.0 - - - - - - -
22/02:00am 14.8 NNE 5 6 1021.0 - 0.0 - - - - - - -
22/01:30am 14.4 NE 6 7 1021.5 - 0.0 - - - - - - -
22/01:00am 14.8 NNE 4 4 1022.0 - 0.0 - - - - - - -
22/12:30am 15.0 NNE 5 7 1022.5 - 0.0 - - - - - - -
22/12:00am 14.9 NE 6 7 1022.7 - 0.0 - - - - - - -
 
Date/Time
EDT
Temp

°C
Wind Pressure Rain
since 9am
mm
Weather Cloud Vis
km
Sea
Height
m
Swell
Dir
 
Speed
knots
Gust
knots
hPa Trend Height
m
Period
s
Dir
21/11:30pm 15.0 NE 2 3 1023.1 - 0.0 - - - - - - -
21/11:00pm 14.3 ENE 4 5 1023.5 - 0.0 - - - - - - -
21/10:30pm 15.0 NE 5 6 1023.6 - 0.0 - - - - - - -
21/10:00pm 15.2 NE 5 6 1023.8 - 0.0 - - - - - - -
21/09:30pm 15.3 ENE 4 6 1023.7 - 0.0 - - - - - - -
21/09:00pm 16.2 E 7 8 1023.6 - 0.0 - - - - - - -
21/08:30pm 16.6 E 8 10 1023.6 - 0.0 - - - - - - -
21/08:00pm 17.1 E 10 13 1023.4 - 0.0 - - - - - - -
21/07:30pm 17.6 E 10 12 1023.4 - 0.0 - - - - - - -
21/07:00pm 18.4 E 11 13 1023.2 - 0.0 - - - - - - -
21/06:30pm 18.9 ESE 12 13 1023.1 - 0.0 - - - - - - -
21/06:00pm 19.5 ESE 13 15 1023.3 - 0.0 - - - - - - -
21/05:30pm 19.9 ESE 14 16 1023.3 - 0.0 - - - - - - -
21/05:00pm 20.5 ESE 15 18 1023.3 - 0.0 - - - - - - -
21/04:30pm 21.2 ESE 12 14 1023.5 - 0.0 - - - - - - -
21/04:00pm 22.5 SE 3 6 1023.8 - 0.0 - - - - - - -
21/03:30pm 22.6 SE 2 3 1024.3 - 0.0 - - - - - - -
21/03:00pm 22.2 SSE 2 3 1024.8 - 0.0 - - - - - - -
21/02:30pm 21.9 SE 2 3 1025.2 - 0.0 - - - - - - -
21/02:00pm 21.6 SE 2 3 1025.8 - 0.0 - - - - - - -
21/01:30pm 20.9 E 2 2 1026.2 - 0.0 - - - - - - -
21/01:00pm 20.3 ESE 2 3 1026.7 - 0.0 - - - - - - -
21/12:30pm 19.9 ESE 1 3 1026.9 - 0.0 - - - - - - -
21/12:00pm 19.3 E 2 3 1027.3 - 0.0 - - - - - - -
21/11:30am 18.0 SSE 2 3 1027.5 - 0.0 - - - - - - -
21/11:00am 18.6 ESE 2 3 1027.8 - 0.0 - - - - - - -
21/10:30am 17.4 SSE 2 4 1028.1 - 0.0 - - - - - - -
21/10:00am 18.6 ENE 4 5 1028.2 - 0.0 - - - - - - -
21/09:30am 17.4 ENE 5 7 1028.2 - 0.0 - - - - - - -
21/09:00am 16.4 ENE 5 6 1028.3 - 0.0 - - - - - - -
21/08:30am 15.4 E 5 7 1028.1 - 0.0 - - - - - - -
21/08:00am 14.2 E 7 8 1027.9 - 0.0 - - - - - - -
21/07:30am 12.8 E 9 11 1027.6 - 0.0 - - - - - - -
21/07:00am 11.6 E 10 11 1027.2 - 0.0 - - - - - - -
21/06:30am 11.3 E 11 13 1026.9 - 0.0 - - - - - - -
21/06:00am 11.2 E 10 13 1026.7 - 0.0 - - - - - - -
21/05:30am 11.2 E 10 13 1026.8 - 0.0 - - - - - - -
21/05:00am 11.5 ESE 12 15 1026.7 - 0.0 - - - - - - -
21/04:30am 11.6 ESE 13 15 1026.7 - 0.0 - - - - - - -
21/04:00am 11.7 ESE 14 17 1026.7 - 0.0 - - - - - - -
21/03:30am 11.7 E 14 17 1027.1 - 0.0 - - - - - - -
21/03:00am 11.7 ESE 16 19 1027.2 - 0.0 - - - - - - -
21/02:30am 11.8 ESE 15 18 1027.6 - 0.0 - - - - - - -
21/02:00am 11.9 E 16 22 1027.7 - 0.0 - - - - - - -
21/01:30am 11.9 E 15 19 1028.4 - 0.0 - - - - - - -
21/01:00am 11.8 E 15 18 1029.0 - 0.0 - - - - - - -
21/12:30am 11.8 E 16 18 1028.9 - 0.0 - - - - - - -
21/12:00am 12.1 ESE 16 20 1029.2 - 0.0 - - - - - - -
 
Date/Time
EDT
Temp

°C
Wind Pressure Rain
since 9am
mm
Weather Cloud Vis
km
Sea
Height
m
Swell
Dir
 
Speed
knots
Gust
knots
hPa Trend Height
m
Period
s
Dir
20/11:30pm 12.0 ESE 16 19 1029.5 - 0.0 - - - - - - -
20/11:00pm 12.0 ESE 17 21 1029.5 - 0.0 - - - - - - -
20/10:30pm 12.0 ESE 15 19 1029.7 - 0.0 - - - - - - -
20/10:00pm 12.2 ESE 16 19 1029.9 - 0.0 - - - - - - -
20/09:30pm 12.4 ESE 17 21 1029.9 - 0.0 - - - - - - -
20/09:00pm 12.6 ESE 18 21 1029.6 - 0.0 - - - - - - -
20/08:30pm 13.0 ESE 20 24 1029.2 - 0.0 - - - - - - -
20/08:00pm 13.4 ESE 20 23 1028.9 - 0.0 - - - - - - -
20/07:30pm 14.0 ESE 20 25 1028.6 - 0.0 - - - - - - -
20/07:00pm 14.7 ESE 23 28 1028.3 - 0.0 - - - - - - -
20/06:30pm 15.5 ESE 18 22 1028.3 - 0.0 - - - - - - -
20/06:00pm 15.7 SE 16 24 1028.3 - 0.0 - - - - - - -
20/05:39pm 16.0 SE 16 26 1028.2 - 0.0 - - - - - - -
20/05:30pm 16.2 SE 16 25 1028.2 - 0.0 - - - - - - -

Other Formats:

Comma delimited format used in spreadsheet applications
http://www.bom.gov.au/fwo/IDV60701/IDV60701.94892.axf

JavaScript Object Notation format (JSON) in row-major order
http://www.bom.gov.au/fwo/IDV60701/IDV60701.94892.json